Terminal Aerodrome Forecast
Issued by NWS Upton, NY

Home | Current Version | Previous Version | Text Only | Print | Product List | Glossary On
Versions: 1 2 3 4 5 6 7 8 9 10 11 12 13 14 15 16 17 18 19 20 21 22 23 24 25 26 27 28 29 30
406
FTUS41 KOKX 260038 AAA
TAFLGA
TAF AMD
KLGA 260038Z 2601/2624 31007KT 6SM -SHRA BR BKN060 BKN150
     FM260200 28006KT P6SM SCT060 BKN150
     FM261000 31006KT P6SM SCT250
     FM261600 29010KT P6SM SCT050 SCT250
     FM261800 29010G17KT P6SM FEW050 FEW250=

USA.gov is the U.S. government's official web portal to all federal, state and local government web resources and services.